sensor_id;sensor_type;location;lat;lon;timestamp;P1;durP1;ratioP1;P2;durP2;ratioP2
9964;SDS011;5023;53.554;9.964;2023-08-21T00:03:53;9.95;;;4.88;;
9964;SDS011;5023;53.554;9.964;2023-08-21T00:08:56;7.55;;;5.00;;
9964;SDS011;5023;53.554;9.964;2023-08-21T00:13:58;8.88;;;5.20;;
9964;SDS011;5023;53.554;9.964;2023-08-21T00:19:00;8.95;;;5.50;;
9964;SDS011;5023;53.554;9.964;2023-08-21T00:24:03;8.32;;;4.95;;
9964;SDS011;5023;53.554;9.964;2023-08-21T00:29:05;9.13;;;5.25;;
9964;SDS011;5023;53.554;9.964;2023-08-21T00:34:07;14.68;;;10.48;;
9964;SDS011;5023;53.554;9.964;2023-08-21T00:39:11;7.95;;;5.40;;
9964;SDS011;5023;53.554;9.964;2023-08-21T00:44:13;11.45;;;5.78;;
9964;SDS011;5023;53.554;9.964;2023-08-21T00:49:15;11.38;;;5.28;;
9964;SDS011;5023;53.554;9.964;2023-08-21T00:54:19;15.07;;;10.15;;
9964;SDS011;5023;53.554;9.964;2023-08-21T00:59:21;7.80;;;5.00;;
9964;SDS011;5023;53.554;9.964;2023-08-21T01:04:24;8.63;;;6.18;;
9964;SDS011;5023;53.554;9.964;2023-08-21T01:09:29;7.85;;;5.50;;
9964;SDS011;5023;53.554;9.964;2023-08-21T01:14:39;9.70;;;5.57;;
9964;SDS011;5023;53.554;9.964;2023-08-21T01:19:48;7.30;;;4.88;;
9964;SDS011;5023;53.554;9.964;2023-08-21T01:24:52;7.20;;;4.90;;
9964;SDS011;5023;53.554;9.964;2023-08-21T01:29:54;9.48;;;5.30;;
9964;SDS011;5023;53.554;9.964;2023-08-21T01:34:56;12.40;;;8.32;;
9964;SDS011;5023;53.554;9.964;2023-08-21T01:40:00;9.32;;;5.55;;
9964;SDS011;5023;53.554;9.964;2023-08-21T01:45:02;9.80;;;5.82;;
9964;SDS011;5023;53.554;9.964;2023-08-21T01:50:05;10.00;;;5.30;;
9964;SDS011;5023;53.554;9.964;2023-08-21T01:55:09;11.93;;;5.55;;
9964;SDS011;5023;53.554;9.964;2023-08-21T02:00:12;8.63;;;5.53;;
9964;SDS011;5023;53.554;9.964;2023-08-21T02:05:14;8.18;;;5.30;;
9964;SDS011;5023;53.554;9.964;2023-08-21T02:10:18;10.60;;;5.93;;
9964;SDS011;5023;53.554;9.964;2023-08-21T02:15:19;8.57;;;5.45;;
9964;SDS011;5023;53.554;9.964;2023-08-21T02:20:23;10.23;;;6.03;;
9964;SDS011;5023;53.554;9.964;2023-08-21T02:25:26;8.80;;;5.53;;
9964;SDS011;5023;53.554;9.964;2023-08-21T02:30:28;8.73;;;5.30;;
9964;SDS011;5023;53.554;9.964;2023-08-21T02:35:30;9.52;;;5.07;;
9964;SDS011;5023;53.554;9.964;2023-08-21T02:40:33;8.73;;;5.43;;
9964;SDS011;5023;53.554;9.964;2023-08-21T02:45:35;9.13;;;5.97;;
9964;SDS011;5023;53.554;9.964;2023-08-21T02:50:37;8.18;;;5.22;;
9964;SDS011;5023;53.554;9.964;2023-08-21T02:55:40;7.10;;;5.00;;
9964;SDS011;5023;53.554;9.964;2023-08-21T03:00:42;7.25;;;5.40;;
9964;SDS011;5023;53.554;9.964;2023-08-21T03:05:44;10.18;;;6.10;;
9964;SDS011;5023;53.554;9.964;2023-08-21T03:10:47;6.65;;;5.10;;
9964;SDS011;5023;53.554;9.964;2023-08-21T03:15:49;6.63;;;5.15;;
9964;SDS011;5023;53.554;9.964;2023-08-21T03:20:51;7.40;;;4.75;;
9964;SDS011;5023;53.554;9.964;2023-08-21T03:25:54;5.03;;;4.20;;
9964;SDS011;5023;53.554;9.964;2023-08-21T03:30:56;6.75;;;4.43;;
9964;SDS011;5023;53.554;9.964;2023-08-21T03:35:58;7.57;;;4.15;;
9964;SDS011;5023;53.554;9.964;2023-08-21T03:41:01;6.53;;;4.05;;
9964;SDS011;5023;53.554;9.964;2023-08-21T03:46:05;7.63;;;3.65;;
9964;SDS011;5023;53.554;9.964;2023-08-21T03:51:07;7.85;;;4.95;;
9964;SDS011;5023;53.554;9.964;2023-08-21T03:56:10;6.13;;;4.47;;
9964;SDS011;5023;53.554;9.964;2023-08-21T04:01:12;9.50;;;6.50;;
9964;SDS011;5023;53.554;9.964;2023-08-21T04:06:13;5.80;;;4.47;;
9964;SDS011;5023;53.554;9.964;2023-08-21T04:11:17;6.10;;;3.75;;
9964;SDS011;5023;53.554;9.964;2023-08-21T04:16:18;7.15;;;5.60;;
9964;SDS011;5023;53.554;9.964;2023-08-21T04:21:21;9.32;;;4.72;;
9964;SDS011;5023;53.554;9.964;2023-08-21T04:26:24;9.57;;;4.13;;
9964;SDS011;5023;53.554;9.964;2023-08-21T04:31:27;8.18;;;4.28;;
9964;SDS011;5023;53.554;9.964;2023-08-21T04:36:28;7.85;;;4.70;;
9964;SDS011;5023;53.554;9.964;2023-08-21T04:41:32;7.25;;;4.30;;
9964;SDS011;5023;53.554;9.964;2023-08-21T04:46:34;8.75;;;4.60;;
9964;SDS011;5023;53.554;9.964;2023-08-21T04:51:36;7.35;;;4.38;;
9964;SDS011;5023;53.554;9.964;2023-08-21T04:56:39;5.03;;;3.42;;
9964;SDS011;5023;53.554;9.964;2023-08-21T05:01:41;8.68;;;4.22;;
9964;SDS011;5023;53.554;9.964;2023-08-21T05:06:43;8.50;;;4.65;;
9964;SDS011;5023;53.554;9.964;2023-08-21T05:11:46;6.80;;;4.13;;
9964;SDS011;5023;53.554;9.964;2023-08-21T05:16:48;6.60;;;4.47;;
9964;SDS011;5023;53.554;9.964;2023-08-21T05:21:50;9.38;;;4.80;;
9964;SDS011;5023;53.554;9.964;2023-08-21T05:26:53;8.70;;;4.60;;
9964;SDS011;5023;53.554;9.964;2023-08-21T05:31:55;11.40;;;4.95;;
9964;SDS011;5023;53.554;9.964;2023-08-21T05:36:59;9.63;;;4.95;;
9964;SDS011;5023;53.554;9.964;2023-08-21T05:42:02;11.23;;;4.68;;
9964;SDS011;5023;53.554;9.964;2023-08-21T05:47:05;7.38;;;4.43;;
9964;SDS011;5023;53.554;9.964;2023-08-21T05:52:08;8.40;;;4.22;;
9964;SDS011;5023;53.554;9.964;2023-08-21T05:57:11;9.48;;;4.43;;
9964;SDS011;5023;53.554;9.964;2023-08-21T06:02:13;10.88;;;4.55;;
9964;SDS011;5023;53.554;9.964;2023-08-21T06:07:15;7.53;;;4.50;;
9964;SDS011;5023;53.554;9.964;2023-08-21T06:12:19;10.60;;;4.32;;
9964;SDS011;5023;53.554;9.964;2023-08-21T06:17:21;8.70;;;4.55;;
9964;SDS011;5023;53.554;9.964;2023-08-21T06:22:23;9.70;;;5.80;;
9964;SDS011;5023;53.554;9.964;2023-08-21T06:27:26;9.93;;;4.70;;
9964;SDS011;5023;53.554;9.964;2023-08-21T06:32:28;10.07;;;3.92;;
9964;SDS011;5023;53.554;9.964;2023-08-21T06:37:30;9.63;;;4.10;;
9964;SDS011;5023;53.554;9.964;2023-08-21T06:42:33;10.68;;;4.45;;
9964;SDS011;5023;53.554;9.964;2023-08-21T06:47:35;6.72;;;4.30;;
9964;SDS011;5023;53.554;9.964;2023-08-21T06:52:37;6.10;;;3.30;;
9964;SDS011;5023;53.554;9.964;2023-08-21T06:57:40;6.15;;;2.78;;
9964;SDS011;5023;53.554;9.964;2023-08-21T07:02:42;7.32;;;3.30;;
9964;SDS011;5023;53.554;9.964;2023-08-21T07:07:44;7.82;;;3.30;;
9964;SDS011;5023;53.554;9.964;2023-08-21T07:12:47;8.10;;;2.63;;
9964;SDS011;5023;53.554;9.964;2023-08-21T07:17:49;6.00;;;2.72;;
9964;SDS011;5023;53.554;9.964;2023-08-21T07:22:51;4.70;;;2.28;;
9964;SDS011;5023;53.554;9.964;2023-08-21T07:27:55;5.32;;;2.63;;
9964;SDS011;5023;53.554;9.964;2023-08-21T07:32:57;5.45;;;2.30;;
9964;SDS011;5023;53.554;9.964;2023-08-21T07:37:59;5.63;;;2.50;;
9964;SDS011;5023;53.554;9.964;2023-08-21T07:43:02;4.53;;;2.20;;
9964;SDS011;5023;53.554;9.964;2023-08-21T07:48:04;5.63;;;2.42;;
9964;SDS011;5023;53.554;9.964;2023-08-21T07:53:06;5.60;;;2.85;;
9964;SDS011;5023;53.554;9.964;2023-08-21T07:58:09;6.50;;;2.70;;
9964;SDS011;5023;53.554;9.964;2023-08-21T08:03:12;6.68;;;2.85;;
9964;SDS011;5023;53.554;9.964;2023-08-21T08:08:16;3.15;;;2.08;;
9964;SDS011;5023;53.554;9.964;2023-08-21T08:13:19;7.03;;;3.08;;
9964;SDS011;5023;53.554;9.964;2023-08-21T08:18:21;4.93;;;2.20;;
9964;SDS011;5023;53.554;9.964;2023-08-21T08:23:23;6.55;;;3.08;;
9964;SDS011;5023;53.554;9.964;2023-08-21T08:28:26;3.85;;;2.25;;
9964;SDS011;5023;53.554;9.964;2023-08-21T08:33:28;6.07;;;2.22;;
9964;SDS011;5023;53.554;9.964;2023-08-21T08:38:30;4.80;;;2.13;;
9964;SDS011;5023;53.554;9.964;2023-08-21T08:43:33;2.72;;;1.80;;
9964;SDS011;5023;53.554;9.964;2023-08-21T08:48:37;3.95;;;2.40;;
9964;SDS011;5023;53.554;9.964;2023-08-21T08:53:40;3.65;;;2.15;;
9964;SDS011;5023;53.554;9.964;2023-08-21T08:58:45;3.10;;;2.72;;
9964;SDS011;5023;53.554;9.964;2023-08-21T09:03:47;6.53;;;2.53;;
9964;SDS011;5023;53.554;9.964;2023-08-21T09:08:53;3.38;;;1.80;;
9964;SDS011;5023;53.554;9.964;2023-08-21T09:13:58;3.70;;;2.03;;
9964;SDS011;5023;53.554;9.964;2023-08-21T09:18:59;3.03;;;2.00;;
9964;SDS011;5023;53.554;9.964;2023-08-21T09:24:01;3.65;;;2.10;;
9964;SDS011;5023;53.554;9.964;2023-08-21T09:29:05;2.50;;;2.10;;
9964;SDS011;5023;53.554;9.964;2023-08-21T09:34:08;3.15;;;2.13;;
9964;SDS011;5023;53.554;9.964;2023-08-21T09:39:14;2.58;;;2.00;;
9964;SDS011;5023;53.554;9.964;2023-08-21T09:44:19;2.97;;;2.10;;
9964;SDS011;5023;53.554;9.964;2023-08-21T09:49:20;2.95;;;1.60;;
9964;SDS011;5023;53.554;9.964;2023-08-21T09:54:23;3.95;;;1.95;;
9964;SDS011;5023;53.554;9.964;2023-08-21T09:59:27;3.88;;;2.80;;
9964;SDS011;5023;53.554;9.964;2023-08-21T10:04:30;3.42;;;2.53;;
9964;SDS011;5023;53.554;9.964;2023-08-21T10:09:35;4.88;;;3.22;;
9964;SDS011;5023;53.554;9.964;2023-08-21T10:14:41;2.75;;;1.80;;
9964;SDS011;5023;53.554;9.964;2023-08-21T10:19:49;2.50;;;1.70;;
9964;SDS011;5023;53.554;9.964;2023-08-21T10:24:53;4.07;;;2.20;;
9964;SDS011;5023;53.554;9.964;2023-08-21T10:30:02;2.67;;;2.20;;
9964;SDS011;5023;53.554;9.964;2023-08-21T10:35:14;3.22;;;2.00;;
9964;SDS011;5023;53.554;9.964;2023-08-21T10:40:21;4.60;;;2.00;;
9964;SDS011;5023;53.554;9.964;2023-08-21T10:45:25;5.18;;;3.20;;
9964;SDS011;5023;53.554;9.964;2023-08-21T10:50:27;8.95;;;5.72;;
9964;SDS011;5023;53.554;9.964;2023-08-21T10:55:29;2.78;;;1.98;;
9964;SDS011;5023;53.554;9.964;2023-08-21T11:00:33;2.35;;;2.00;;
9964;SDS011;5023;53.554;9.964;2023-08-21T11:05:34;3.78;;;1.60;;
9964;SDS011;5023;53.554;9.964;2023-08-21T11:10:36;1.95;;;1.85;;
9964;SDS011;5023;53.554;9.964;2023-08-21T11:15:41;5.00;;;1.70;;
9964;SDS011;5023;53.554;9.964;2023-08-21T11:20:46;5.47;;;4.40;;
9964;SDS011;5023;53.554;9.964;2023-08-21T11:25:48;2.33;;;1.67;;
9964;SDS011;5023;53.554;9.964;2023-08-21T11:30:52;2.70;;;1.90;;
9964;SDS011;5023;53.554;9.964;2023-08-21T11:35:56;2.88;;;1.70;;
9964;SDS011;5023;53.554;9.964;2023-08-21T11:40:59;2.65;;;1.70;;
9964;SDS011;5023;53.554;9.964;2023-08-21T11:46:04;4.40;;;3.92;;
9964;SDS011;5023;53.554;9.964;2023-08-21T11:51:07;3.47;;;1.70;;
9964;SDS011;5023;53.554;9.964;2023-08-21T11:56:10;2.60;;;1.77;;
9964;SDS011;5023;53.554;9.964;2023-08-21T12:01:17;3.13;;;1.85;;
9964;SDS011;5023;53.554;9.964;2023-08-21T12:06:19;2.58;;;1.63;;
9964;SDS011;5023;53.554;9.964;2023-08-21T12:11:22;3.13;;;2.00;;
9964;SDS011;5023;53.554;9.964;2023-08-21T12:16:25;3.67;;;1.80;;
9964;SDS011;5023;53.554;9.964;2023-08-21T12:21:27;2.38;;;2.00;;
9964;SDS011;5023;53.554;9.964;2023-08-21T12:26:29;2.90;;;2.03;;
9964;SDS011;5023;53.554;9.964;2023-08-21T12:31:33;2.80;;;2.60;;
9964;SDS011;5023;53.554;9.964;2023-08-21T12:36:34;6.25;;;5.65;;
9964;SDS011;5023;53.554;9.964;2023-08-21T12:41:37;2.60;;;2.30;;
9964;SDS011;5023;53.554;9.964;2023-08-21T12:46:41;2.95;;;2.50;;
9964;SDS011;5023;53.554;9.964;2023-08-21T12:51:43;3.03;;;2.15;;
9964;SDS011;5023;53.554;9.964;2023-08-21T12:56:45;3.83;;;1.60;;
9964;SDS011;5023;53.554;9.964;2023-08-21T13:01:48;3.28;;;2.90;;
9964;SDS011;5023;53.554;9.964;2023-08-21T13:06:50;4.05;;;3.53;;
9964;SDS011;5023;53.554;9.964;2023-08-21T13:11:53;2.45;;;2.13;;
9964;SDS011;5023;53.554;9.964;2023-08-21T13:16:57;4.00;;;3.17;;
9964;SDS011;5023;53.554;9.964;2023-08-21T13:21:59;4.13;;;1.80;;
9964;SDS011;5023;53.554;9.964;2023-08-21T13:27:00;3.58;;;2.40;;
9964;SDS011;5023;53.554;9.964;2023-08-21T13:32:04;7.50;;;6.80;;
9964;SDS011;5023;53.554;9.964;2023-08-21T13:37:06;2.25;;;1.60;;
9964;SDS011;5023;53.554;9.964;2023-08-21T13:42:08;3.35;;;1.60;;
9964;SDS011;5023;53.554;9.964;2023-08-21T13:47:11;4.15;;;1.73;;
9964;SDS011;5023;53.554;9.964;2023-08-21T13:52:13;2.03;;;1.92;;
9964;SDS011;5023;53.554;9.964;2023-08-21T13:57:15;2.00;;;1.90;;
9964;SDS011;5023;53.554;9.964;2023-08-21T14:02:18;2.03;;;1.80;;
9964;SDS011;5023;53.554;9.964;2023-08-21T14:07:20;4.53;;;4.07;;
9964;SDS011;5023;53.554;9.964;2023-08-21T14:12:22;2.47;;;2.03;;
9964;SDS011;5023;53.554;9.964;2023-08-21T14:17:25;2.33;;;2.08;;
9964;SDS011;5023;53.554;9.964;2023-08-21T14:22:27;7.50;;;6.85;;
9964;SDS011;5023;53.554;9.964;2023-08-21T14:27:29;2.58;;;2.25;;
9964;SDS011;5023;53.554;9.964;2023-08-21T14:32:33;2.92;;;2.30;;
9964;SDS011;5023;53.554;9.964;2023-08-21T14:37:35;2.67;;;2.00;;
9964;SDS011;5023;53.554;9.964;2023-08-21T14:42:37;1.73;;;1.63;;
9964;SDS011;5023;53.554;9.964;2023-08-21T14:47:40;2.85;;;2.28;;
9964;SDS011;5023;53.554;9.964;2023-08-21T14:52:42;4.78;;;3.85;;
9964;SDS011;5023;53.554;9.964;2023-08-21T14:57:44;14.68;;;13.05;;
9964;SDS011;5023;53.554;9.964;2023-08-21T15:02:47;2.33;;;2.13;;
9964;SDS011;5023;53.554;9.964;2023-08-21T15:07:49;3.35;;;2.53;;
9964;SDS011;5023;53.554;9.964;2023-08-21T15:12:52;2.95;;;2.50;;
9964;SDS011;5023;53.554;9.964;2023-08-21T15:17:55;2.25;;;2.05;;
9964;SDS011;5023;53.554;9.964;2023-08-21T15:22:57;6.72;;;6.13;;
9964;SDS011;5023;53.554;9.964;2023-08-21T15:27:59;5.07;;;2.50;;
9964;SDS011;5023;53.554;9.964;2023-08-21T15:33:02;5.88;;;5.28;;
9964;SDS011;5023;53.554;9.964;2023-08-21T15:38:05;2.17;;;2.00;;
9964;SDS011;5023;53.554;9.964;2023-08-21T15:43:07;4.47;;;2.80;;
9964;SDS011;5023;53.554;9.964;2023-08-21T15:48:10;4.00;;;2.70;;
9964;SDS011;5023;53.554;9.964;2023-08-21T15:53:12;4.68;;;2.60;;
9964;SDS011;5023;53.554;9.964;2023-08-21T15:58:14;2.90;;;2.67;;
9964;SDS011;5023;53.554;9.964;2023-08-21T16:03:18;2.95;;;2.53;;
9964;SDS011;5023;53.554;9.964;2023-08-21T16:08:20;3.55;;;3.05;;
9964;SDS011;5023;53.554;9.964;2023-08-21T16:13:22;6.93;;;3.88;;
9964;SDS011;5023;53.554;9.964;2023-08-21T16:18:25;3.75;;;2.72;;
9964;SDS011;5023;53.554;9.964;2023-08-21T16:23:27;2.38;;;2.17;;
9964;SDS011;5023;53.554;9.964;2023-08-21T16:28:29;2.40;;;2.20;;
9964;SDS011;5023;53.554;9.964;2023-08-21T16:33:32;3.47;;;2.80;;
9964;SDS011;5023;53.554;9.964;2023-08-21T16:38:35;3.38;;;2.17;;
9964;SDS011;5023;53.554;9.964;2023-08-21T16:43:37;3.13;;;2.65;;
9964;SDS011;5023;53.554;9.964;2023-08-21T16:48:41;3.28;;;2.65;;
9964;SDS011;5023;53.554;9.964;2023-08-21T16:53:42;2.95;;;2.50;;
9964;SDS011;5023;53.554;9.964;2023-08-21T16:58:44;2.50;;;2.30;;
9964;SDS011;5023;53.554;9.964;2023-08-21T17:03:48;3.67;;;3.38;;
9964;SDS011;5023;53.554;9.964;2023-08-21T17:08:50;4.55;;;3.97;;
9964;SDS011;5023;53.554;9.964;2023-08-21T17:13:53;20.40;;;18.33;;
9964;SDS011;5023;53.554;9.964;2023-08-21T17:18:56;4.28;;;3.88;;
9964;SDS011;5023;53.554;9.964;2023-08-21T17:23:58;5.55;;;4.03;;
9964;SDS011;5023;53.554;9.964;2023-08-21T17:29:00;3.22;;;2.92;;
9964;SDS011;5023;53.554;9.964;2023-08-21T17:34:04;5.25;;;4.70;;
9964;SDS011;5023;53.554;9.964;2023-08-21T17:39:06;3.95;;;3.58;;
9964;SDS011;5023;53.554;9.964;2023-08-21T17:44:08;6.15;;;3.47;;
9964;SDS011;5023;53.554;9.964;2023-08-21T17:49:11;3.67;;;3.10;;
9964;SDS011;5023;53.554;9.964;2023-08-21T17:54:13;7.53;;;4.00;;
9964;SDS011;5023;53.554;9.964;2023-08-21T17:59:15;5.00;;;4.22;;
9964;SDS011;5023;53.554;9.964;2023-08-21T18:04:18;4.15;;;3.85;;
9964;SDS011;5023;53.554;9.964;2023-08-21T18:09:20;4.90;;;3.30;;
9964;SDS011;5023;53.554;9.964;2023-08-21T18:14:22;6.80;;;4.90;;
9964;SDS011;5023;53.554;9.964;2023-08-21T18:19:26;5.68;;;4.57;;
9964;SDS011;5023;53.554;9.964;2023-08-21T18:24:28;7.18;;;6.45;;
9964;SDS011;5023;53.554;9.964;2023-08-21T18:29:29;11.73;;;10.65;;
9964;SDS011;5023;53.554;9.964;2023-08-21T18:34:33;22.15;;;19.95;;
9964;SDS011;5023;53.554;9.964;2023-08-21T18:39:37;8.10;;;5.82;;
9964;SDS011;5023;53.554;9.964;2023-08-21T18:44:39;6.93;;;6.20;;
9964;SDS011;5023;53.554;9.964;2023-08-21T18:49:43;10.48;;;9.25;;
9964;SDS011;5023;53.554;9.964;2023-08-21T18:54:44;20.92;;;15.55;;
9964;SDS011;5023;53.554;9.964;2023-08-21T18:59:46;13.98;;;10.75;;
9964;SDS011;5023;53.554;9.964;2023-08-21T19:04:50;15.48;;;13.60;;
9964;SDS011;5023;53.554;9.964;2023-08-21T19:09:52;19.35;;;15.55;;
9964;SDS011;5023;53.554;9.964;2023-08-21T19:14:53;17.15;;;14.68;;
9964;SDS011;5023;53.554;9.964;2023-08-21T19:19:59;21.88;;;19.58;;
9964;SDS011;5023;53.554;9.964;2023-08-21T19:25:01;21.52;;;19.00;;
9964;SDS011;5023;53.554;9.964;2023-08-21T19:30:03;19.80;;;17.13;;
9964;SDS011;5023;53.554;9.964;2023-08-21T19:35:08;16.40;;;14.15;;
9964;SDS011;5023;53.554;9.964;2023-08-21T19:40:10;15.23;;;13.55;;
9964;SDS011;5023;53.554;9.964;2023-08-21T19:45:13;23.52;;;17.23;;
9964;SDS011;5023;53.554;9.964;2023-08-21T19:50:20;27.65;;;23.77;;
9964;SDS011;5023;53.554;9.964;2023-08-21T19:55:22;14.98;;;11.85;;
9964;SDS011;5023;53.554;9.964;2023-08-21T20:00:24;21.80;;;19.45;;
9964;SDS011;5023;53.554;9.964;2023-08-21T20:05:27;12.18;;;10.82;;
9964;SDS011;5023;53.554;9.964;2023-08-21T20:10:29;10.45;;;9.45;;
9964;SDS011;5023;53.554;9.964;2023-08-21T20:15:32;11.63;;;9.95;;
9964;SDS011;5023;53.554;9.964;2023-08-21T20:20:35;13.95;;;11.98;;
9964;SDS011;5023;53.554;9.964;2023-08-21T20:25:37;11.43;;;10.25;;
9964;SDS011;5023;53.554;9.964;2023-08-21T20:30:39;19.17;;;16.77;;
9964;SDS011;5023;53.554;9.964;2023-08-21T20:35:43;18.73;;;14.80;;
9964;SDS011;5023;53.554;9.964;2023-08-21T20:40:46;9.27;;;8.32;;
9964;SDS011;5023;53.554;9.964;2023-08-21T20:45:48;11.05;;;9.52;;
9964;SDS011;5023;53.554;9.964;2023-08-21T20:50:51;11.25;;;9.02;;
9964;SDS011;5023;53.554;9.964;2023-08-21T20:55:56;11.55;;;8.40;;
9964;SDS011;5023;53.554;9.964;2023-08-21T21:00:59;13.02;;;11.73;;
9964;SDS011;5023;53.554;9.964;2023-08-21T21:06:02;10.90;;;9.80;;
9964;SDS011;5023;53.554;9.964;2023-08-21T21:11:04;8.50;;;7.43;;
9964;SDS011;5023;53.554;9.964;2023-08-21T21:16:06;10.05;;;9.05;;
9964;SDS011;5023;53.554;9.964;2023-08-21T21:21:10;8.45;;;7.63;;
9964;SDS011;5023;53.554;9.964;2023-08-21T21:26:11;9.45;;;8.48;;
9964;SDS011;5023;53.554;9.964;2023-08-21T21:31:13;15.02;;;12.75;;
9964;SDS011;5023;53.554;9.964;2023-08-21T21:36:17;8.48;;;6.20;;
9964;SDS011;5023;53.554;9.964;2023-08-21T21:41:19;6.57;;;5.97;;
9964;SDS011;5023;53.554;9.964;2023-08-21T21:46:23;7.88;;;7.18;;
9964;SDS011;5023;53.554;9.964;2023-08-21T21:51:27;12.45;;;11.15;;
9964;SDS011;5023;53.554;9.964;2023-08-21T21:56:29;6.65;;;5.97;;
9964;SDS011;5023;53.554;9.964;2023-08-21T22:01:31;14.98;;;12.40;;
9964;SDS011;5023;53.554;9.964;2023-08-21T22:06:34;7.85;;;5.40;;
9964;SDS011;5023;53.554;9.964;2023-08-21T22:11:39;36.92;;;33.25;;
9964;SDS011;5023;53.554;9.964;2023-08-21T22:16:40;13.90;;;12.50;;
9964;SDS011;5023;53.554;9.964;2023-08-21T22:21:44;8.90;;;8.10;;
9964;SDS011;5023;53.554;9.964;2023-08-21T22:26:46;7.35;;;6.63;;
9964;SDS011;5023;53.554;9.964;2023-08-21T22:31:48;14.27;;;8.57;;
9964;SDS011;5023;53.554;9.964;2023-08-21T22:36:51;7.68;;;6.65;;
9964;SDS011;5023;53.554;9.964;2023-08-21T22:41:53;4.80;;;3.80;;
9964;SDS011;5023;53.554;9.964;2023-08-21T22:46:55;7.70;;;6.90;;
9964;SDS011;5023;53.554;9.964;2023-08-21T22:51:58;6.70;;;4.72;;
9964;SDS011;5023;53.554;9.964;2023-08-21T22:57:00;4.70;;;3.80;;
9964;SDS011;5023;53.554;9.964;2023-08-21T23:02:02;6.57;;;4.65;;
9964;SDS011;5023;53.554;9.964;2023-08-21T23:07:06;5.45;;;4.88;;
9964;SDS011;5023;53.554;9.964;2023-08-21T23:12:08;6.18;;;5.38;;
9964;SDS011;5023;53.554;9.964;2023-08-21T23:17:11;7.80;;;3.63;;
9964;SDS011;5023;53.554;9.964;2023-08-21T23:22:15;4.70;;;4.20;;
9964;SDS011;5023;53.554;9.964;2023-08-21T23:27:16;5.20;;;4.10;;
9964;SDS011;5023;53.554;9.964;2023-08-21T23:32:18;3.83;;;3.53;;
9964;SDS011;5023;53.554;9.964;2023-08-21T23:37:22;4.97;;;4.30;;
9964;SDS011;5023;53.554;9.964;2023-08-21T23:42:24;9.13;;;7.43;;
9964;SDS011;5023;53.554;9.964;2023-08-21T23:47:26;3.60;;;3.30;;
9964;SDS011;5023;53.554;9.964;2023-08-21T23:52:30;4.20;;;3.88;;
9964;SDS011;5023;53.554;9.964;2023-08-21T23:57:32;4.85;;;4.20;;
